createdAt,value
2018-06-11T00:01:42.394Z,12.40
2018-06-11T00:04:11.435Z,12.20
2018-06-11T00:06:40.536Z,11.83
2018-06-11T00:09:09.615Z,10.97
2018-06-11T00:11:38.621Z,11.43
2018-06-11T00:14:07.668Z,12.90
2018-06-11T00:16:36.759Z,12.20
2018-06-11T00:19:05.779Z,11.90
2018-06-11T00:21:34.834Z,12.00
2018-06-11T00:24:03.867Z,13.40
2018-06-11T00:26:32.933Z,12.20
2018-06-11T00:29:01.952Z,11.57
2018-06-11T00:31:31.004Z,12.40
2018-06-11T00:34:00.312Z,12.93
2018-06-11T00:36:29.348Z,12.40
2018-06-11T00:38:58.355Z,12.60
2018-06-11T00:41:27.383Z,12.73
2018-06-11T00:43:56.438Z,12.43
2018-06-11T00:46:25.424Z,11.80
2018-06-11T00:48:54.465Z,11.73
2018-06-11T00:51:23.476Z,12.20
2018-06-11T00:53:52.507Z,11.87
2018-06-11T00:56:21.544Z,11.97
2018-06-11T00:58:51.543Z,11.00
2018-06-11T01:01:20.574Z,11.63
2018-06-11T01:03:49.622Z,13.23
2018-06-11T01:06:18.808Z,12.00
2018-06-11T01:08:47.849Z,12.83
2018-06-11T01:11:16.903Z,11.60
2018-06-11T01:13:45.898Z,12.23
2018-06-11T01:16:14.942Z,12.70
2018-06-11T01:18:43.976Z,12.90
2018-06-11T01:21:13.057Z,12.37
2018-06-11T01:23:42.082Z,11.50
2018-06-11T01:26:11.148Z,11.40
2018-06-11T01:28:40.183Z,12.63
2018-06-11T01:31:09.215Z,11.87
2018-06-11T01:33:38.225Z,12.93
2018-06-11T01:36:07.274Z,11.67
2018-06-11T01:38:36.321Z,10.70
2018-06-11T01:41:05.346Z,12.47
2018-06-11T01:43:34.383Z,13.53
2018-06-11T01:46:03.388Z,12.50
2018-06-11T01:48:32.419Z,11.87
2018-06-11T01:51:01.447Z,11.40
2018-06-11T01:53:30.489Z,11.30
2018-06-11T01:56:00.006Z,11.63
2018-06-11T01:58:29.027Z,12.70
2018-06-11T02:00:58.036Z,11.00
2018-06-11T02:03:27.078Z,10.40
2018-06-11T02:05:56.090Z,11.10
2018-06-11T02:08:25.132Z,12.13
2018-06-11T02:10:54.158Z,12.23
2018-06-11T02:13:23.353Z,12.63
2018-06-11T02:15:52.404Z,11.93
2018-06-11T02:18:21.426Z,11.93
2018-06-11T02:20:50.488Z,11.13
2018-06-11T02:23:19.560Z,11.93
2018-06-11T02:25:48.775Z,11.73
2018-06-11T02:28:17.788Z,10.63
2018-06-11T02:30:46.847Z,11.33
2018-06-11T02:33:15.835Z,11.57
2018-06-11T02:35:44.940Z,10.90
2018-06-11T02:38:13.971Z,11.97
2018-06-11T02:40:43.034Z,11.63
2018-06-11T02:43:12.027Z,11.40
2018-06-11T02:45:41.028Z,11.07
2018-06-11T02:48:10.063Z,11.50
2018-06-11T02:50:39.089Z,10.93
2018-06-11T02:53:08.121Z,11.33
2018-06-11T02:55:37.143Z,12.03
2018-06-11T02:58:06.268Z,11.13
2018-06-11T03:00:35.299Z,10.70
2018-06-11T03:03:04.334Z,11.80
2018-06-11T03:05:33.523Z,10.50
2018-06-11T03:08:02.547Z,10.80
2018-06-11T03:10:31.135Z,12.37
2018-06-11T03:13:00.171Z,12.60
2018-06-11T03:15:29.221Z,10.87
2018-06-11T03:17:58.351Z,12.33
2018-06-11T03:20:27.365Z,10.30
2018-06-11T03:22:56.416Z,11.77
2018-06-11T03:25:25.509Z,11.17
2018-06-11T03:27:54.623Z,10.93
2018-06-11T03:30:23.616Z,10.60
2018-06-11T03:32:52.686Z,11.20
2018-06-11T03:35:21.729Z,10.97
2018-06-11T03:37:50.727Z,10.57
2018-06-11T03:40:19.756Z,10.20
2018-06-11T03:42:48.782Z,10.07
2018-06-11T03:45:17.898Z,10.00
2018-06-11T03:47:46.956Z,11.10
2018-06-11T03:50:15.983Z,10.80
2018-06-11T03:52:45.000Z,10.50
2018-06-11T03:55:14.074Z,11.50
2018-06-11T03:57:43.181Z,9.87
2018-06-11T04:00:12.329Z,11.17
2018-06-11T04:02:41.373Z,10.10
2018-06-11T04:05:10.403Z,10.20
2018-06-11T04:07:39.531Z,9.13
2018-06-11T04:10:08.758Z,9.53
2018-06-11T04:12:37.823Z,9.83
2018-06-11T04:15:07.063Z,8.77
2018-06-11T04:17:36.168Z,9.87
2018-06-11T04:20:05.283Z,8.93
2018-06-11T04:22:34.626Z,9.40
2018-06-11T04:25:05.353Z,9.17
2018-06-11T04:27:34.739Z,8.70
2018-06-11T04:30:03.996Z,9.60
2018-06-11T04:32:33.187Z,9.20
2018-06-11T04:35:01.865Z,8.77
2018-06-11T04:37:30.967Z,8.97
2018-06-11T04:40:00.080Z,8.47
2018-06-11T04:42:29.088Z,9.00
2018-06-11T04:44:58.139Z,9.07
2018-06-11T04:47:27.168Z,9.37
2018-06-11T04:49:56.260Z,9.27
2018-06-11T04:52:25.579Z,9.50
2018-06-11T04:54:54.602Z,9.30
2018-06-11T04:57:23.687Z,8.07
2018-06-11T04:59:52.700Z,7.63
2018-06-11T05:02:21.754Z,8.40
2018-06-11T05:04:50.794Z,8.80
2018-06-11T05:07:19.800Z,7.67
2018-06-11T05:09:48.785Z,7.60
2018-06-11T05:12:17.821Z,7.50
2018-06-11T05:14:46.890Z,7.20
2018-06-11T05:17:15.925Z,6.60
2018-06-11T05:19:44.958Z,7.20
2018-06-11T05:22:13.994Z,6.50
2018-06-11T05:24:43.021Z,6.70
2018-06-11T05:27:12.252Z,6.73
2018-06-11T05:29:41.261Z,6.73
2018-06-11T05:32:10.322Z,6.67
2018-06-11T05:34:39.365Z,6.80
2018-06-11T05:37:08.503Z,6.83
2018-06-11T05:39:37.905Z,6.50
2018-06-11T05:42:06.968Z,6.63
2018-06-11T05:44:35.980Z,6.90
2018-06-11T05:47:05.321Z,6.57
2018-06-11T05:49:34.380Z,6.90
2018-06-11T05:52:03.401Z,6.50
2018-06-11T05:54:32.739Z,6.27
2018-06-11T05:57:02.013Z,6.60
2018-06-11T05:59:31.054Z,5.83
2018-06-11T06:02:00.296Z,6.20
2018-06-11T06:04:29.307Z,6.27
2018-06-11T06:06:58.390Z,5.93
2018-06-11T06:09:27.456Z,5.90
2018-06-11T06:11:56.500Z,6.30
2018-06-11T06:14:25.539Z,5.40
2018-06-11T06:16:54.536Z,6.30
2018-06-11T06:19:23.552Z,5.93
2018-06-11T06:21:52.587Z,7.03
2018-06-11T06:24:21.598Z,5.40
2018-06-11T06:26:50.615Z,6.03
2018-06-11T06:29:19.667Z,5.80
2018-06-11T06:31:48.695Z,5.63
2018-06-11T06:34:17.821Z,5.80
2018-06-11T06:36:46.785Z,5.13
2018-06-11T06:39:15.796Z,5.27
2018-06-11T06:41:44.829Z,4.90
2018-06-11T06:44:13.834Z,5.20
2018-06-11T06:46:42.871Z,5.77
2018-06-11T06:49:11.866Z,6.10
2018-06-11T06:51:40.913Z,5.40
2018-06-11T06:54:09.923Z,5.83
2018-06-11T06:56:39.031Z,5.70
2018-06-11T06:59:08.170Z,5.67
2018-06-11T07:01:37.166Z,5.73
2018-06-11T07:04:06.216Z,5.23
2018-06-11T07:06:35.206Z,5.90
2018-06-11T07:09:06.338Z,5.60
2018-06-11T07:11:35.441Z,4.57
2018-06-11T07:14:04.520Z,5.57
2018-06-11T07:16:33.533Z,6.17
2018-06-11T07:19:02.963Z,5.90
2018-06-11T07:21:32.063Z,5.60
2018-06-11T07:24:01.140Z,6.23
2018-06-11T07:26:30.141Z,5.13
2018-06-11T07:28:59.192Z,4.77
2018-06-11T07:31:28.251Z,5.57
2018-06-11T07:33:57.279Z,5.33
2018-06-11T07:36:26.310Z,4.20
2018-06-11T07:38:55.316Z,5.00
2018-06-11T07:41:24.385Z,4.20
2018-06-11T07:43:53.414Z,5.20
2018-06-11T07:46:22.484Z,4.10
2018-06-11T07:48:51.493Z,4.60
2018-06-11T07:51:20.079Z,4.17
2018-06-11T07:53:49.097Z,4.30
2018-06-11T07:56:18.248Z,4.60
2018-06-11T07:58:47.290Z,5.03
2018-06-11T08:01:16.349Z,4.30
2018-06-11T08:03:45.346Z,5.27
2018-06-11T08:06:14.388Z,4.67
2018-06-11T08:08:43.461Z,5.07
2018-06-11T08:11:12.568Z,5.50
2018-06-11T08:13:41.629Z,4.77
2018-06-11T08:16:10.623Z,5.20
2018-06-11T08:18:39.631Z,5.00
2018-06-11T08:21:08.653Z,4.67
2018-06-11T08:23:37.700Z,4.60
2018-06-11T08:26:07.253Z,4.70
2018-06-11T08:28:36.247Z,5.40
2018-06-11T08:31:05.296Z,4.90
2018-06-11T08:33:34.354Z,5.10
2018-06-11T08:36:03.368Z,5.47
2018-06-11T08:38:32.430Z,4.43
2018-06-11T08:41:00.970Z,4.60
2018-06-11T08:43:30.039Z,4.10
2018-06-11T08:45:59.068Z,4.33
2018-06-11T08:48:28.130Z,3.70
2018-06-11T08:50:57.145Z,4.70
2018-06-11T08:53:32.774Z,4.63
2018-06-11T08:56:01.796Z,4.70
2018-06-11T08:58:30.879Z,3.93
2018-06-11T09:00:59.876Z,4.27
2018-06-11T09:03:28.923Z,4.47
2018-06-11T09:05:58.007Z,4.27
2018-06-11T09:08:27.082Z,3.60
2018-06-11T09:10:56.134Z,3.97
2018-06-11T09:13:25.255Z,4.30
2018-06-11T09:15:54.322Z,4.73
2018-06-11T09:18:23.510Z,4.50
2018-06-11T09:20:52.424Z,4.40
2018-06-11T09:23:21.487Z,4.90
2018-06-11T09:25:50.501Z,4.70
2018-06-11T09:28:19.532Z,5.47
2018-06-11T09:30:48.641Z,5.20
2018-06-11T09:33:17.697Z,5.07
2018-06-11T09:35:46.739Z,5.20
2018-06-11T09:38:15.773Z,4.63
2018-06-11T09:40:44.831Z,6.00
2018-06-11T09:43:13.842Z,5.47
2018-06-11T09:45:42.898Z,4.77
2018-06-11T09:48:11.936Z,5.10
2018-06-11T09:50:41.013Z,5.90
2018-06-11T09:53:10.040Z,5.40
2018-06-11T09:55:39.087Z,4.77
2018-06-11T09:58:08.153Z,5.13
2018-06-11T10:00:37.699Z,5.03
2018-06-11T10:03:06.750Z,5.10
2018-06-11T10:05:35.820Z,5.47
2018-06-11T10:08:04.834Z,5.40
2018-06-11T10:10:33.946Z,4.87
2018-06-11T10:13:03.020Z,5.40
2018-06-11T10:15:32.208Z,5.90
2018-06-11T10:18:01.290Z,4.40
2018-06-11T10:20:30.355Z,5.17
2018-06-11T10:22:59.440Z,4.63
2018-06-11T10:25:28.853Z,5.60
2018-06-11T10:27:57.919Z,5.60
2018-06-11T10:30:27.000Z,4.60
2018-06-11T10:32:56.377Z,5.20
2018-06-11T10:35:25.474Z,5.50
2018-06-11T10:37:54.593Z,4.57
2018-06-11T10:40:23.596Z,4.90
2018-06-11T10:42:52.635Z,6.13
2018-06-11T10:45:21.722Z,4.67
2018-06-11T10:47:50.824Z,5.07
2018-06-11T10:50:19.837Z,4.83
2018-06-11T10:52:48.887Z,5.30
2018-06-11T10:55:17.936Z,4.90
2018-06-11T10:57:46.979Z,5.37
2018-06-11T11:00:16.169Z,5.20
2018-06-11T11:02:45.399Z,4.60
2018-06-11T11:05:14.012Z,5.13
2018-06-11T11:07:44.281Z,5.57
2018-06-11T11:10:13.341Z,4.73
2018-06-11T11:12:44.207Z,5.00
2018-06-11T11:15:13.242Z,5.43
2018-06-11T11:17:42.275Z,5.27
2018-06-11T11:20:11.318Z,5.40
2018-06-11T11:22:40.375Z,4.27
2018-06-11T11:25:09.453Z,4.70
2018-06-11T11:27:38.489Z,5.20
2018-06-11T11:30:07.667Z,4.70
2018-06-11T11:32:36.720Z,4.37
2018-06-11T11:35:06.348Z,4.30
2018-06-11T11:37:35.390Z,4.40
2018-06-11T11:40:04.474Z,5.27
2018-06-11T11:42:33.525Z,5.00
2018-06-11T11:45:02.528Z,5.27
2018-06-11T11:47:31.581Z,5.33
2018-06-11T11:50:00.584Z,5.20
2018-06-11T11:52:29.634Z,4.73
2018-06-11T11:54:58.627Z,5.50
2018-06-11T11:57:27.690Z,5.43
2018-06-11T12:00:00.754Z,4.90
2018-06-11T12:02:30.071Z,4.90
2018-06-11T12:04:59.117Z,4.90
2018-06-11T12:07:28.099Z,4.33
2018-06-11T12:09:57.140Z,5.17
2018-06-11T12:12:26.136Z,5.13
2018-06-11T12:14:55.184Z,3.50
2018-06-11T12:17:24.160Z,4.40
2018-06-11T12:19:53.191Z,4.43
2018-06-11T12:22:22.246Z,4.30
2018-06-11T12:24:51.381Z,4.53
2018-06-11T12:27:20.710Z,5.03
2018-06-11T12:29:50.261Z,4.80
2018-06-11T12:32:19.390Z,5.30
2018-06-11T12:34:48.681Z,5.30
2018-06-11T12:37:17.832Z,4.97
2018-06-11T12:39:47.086Z,4.53
2018-06-11T12:42:16.279Z,4.50
2018-06-11T12:44:45.727Z,5.00
2018-06-11T12:47:15.332Z,5.13
2018-06-11T12:49:45.873Z,4.83
2018-06-11T12:52:15.516Z,5.77
2018-06-11T12:54:45.036Z,4.23
2018-06-11T12:57:14.315Z,4.60
2018-06-11T12:59:43.516Z,4.87
2018-06-11T13:02:12.787Z,4.43
2018-06-11T13:04:42.438Z,3.83
2018-06-11T13:07:11.772Z,4.90
2018-06-11T13:09:41.475Z,4.90
2018-06-11T13:12:11.132Z,4.47
2018-06-11T13:14:40.739Z,4.13
2018-06-11T13:17:10.508Z,3.90
2018-06-11T13:19:39.859Z,4.03
2018-06-11T13:22:09.128Z,4.60
2018-06-11T13:24:38.602Z,4.33
2018-06-11T13:27:08.244Z,4.83
2018-06-11T13:29:37.624Z,5.10
2018-06-11T13:32:06.817Z,4.13
2018-06-11T13:34:36.306Z,4.40
2018-06-11T13:37:06.503Z,4.83
2018-06-11T13:39:36.225Z,3.77
2018-06-11T13:42:05.431Z,4.73
2018-06-11T13:44:34.599Z,3.90
2018-06-11T13:47:04.402Z,4.73
2018-06-11T13:49:33.538Z,4.07
2018-06-11T13:52:02.595Z,5.53
2018-06-11T13:54:31.675Z,6.40
2018-06-11T13:57:00.765Z,4.27
2018-06-11T13:59:29.805Z,5.60
2018-06-11T14:01:58.876Z,4.30
2018-06-11T14:04:27.923Z,4.73
2018-06-11T14:06:56.942Z,5.27
2018-06-11T14:09:25.973Z,4.60
2018-06-11T14:11:55.425Z,5.13
2018-06-11T14:14:24.552Z,3.97
2018-06-11T14:16:53.644Z,4.53
2018-06-11T14:19:22.282Z,5.30
2018-06-11T14:21:51.328Z,4.73
2018-06-11T14:24:20.401Z,4.90
2018-06-11T14:26:49.540Z,4.80
2018-06-11T14:29:18.600Z,4.83
2018-06-11T14:31:47.611Z,4.60
2018-06-11T14:34:16.666Z,4.60
2018-06-11T14:36:45.731Z,5.27
2018-06-11T14:39:14.731Z,4.30
2018-06-11T14:41:43.783Z,5.00
2018-06-11T14:44:12.772Z,5.07
2018-06-11T14:46:41.905Z,4.93
2018-06-11T14:49:10.952Z,5.60
2018-06-11T14:51:40.044Z,5.40
2018-06-11T14:54:09.148Z,5.07
2018-06-11T14:56:38.237Z,5.43
2018-06-11T14:59:07.322Z,4.63
2018-06-11T15:01:36.422Z,5.23
2018-06-11T15:04:05.555Z,5.77
2018-06-11T15:06:34.612Z,6.20
2018-06-11T15:09:04.356Z,4.87
2018-06-11T15:11:33.407Z,5.63
2018-06-11T15:14:02.455Z,4.73
2018-06-11T15:16:31.747Z,5.60
2018-06-11T15:19:00.787Z,4.90
2018-06-11T15:21:29.795Z,5.13
2018-06-11T15:23:58.935Z,5.97
2018-06-11T15:26:27.988Z,5.70
2018-06-11T15:28:57.079Z,5.43
2018-06-11T15:31:26.086Z,5.10
2018-06-11T15:33:55.103Z,4.43
2018-06-11T15:36:24.238Z,4.73
2018-06-11T15:38:53.276Z,4.80
2018-06-11T15:41:22.301Z,4.47
2018-06-11T15:43:51.446Z,4.60
2018-06-11T15:46:20.487Z,4.87
2018-06-11T15:48:49.514Z,6.30
2018-06-11T15:51:18.521Z,5.30
2018-06-11T15:53:47.559Z,5.50
2018-06-11T15:56:16.660Z,4.40
2018-06-11T15:58:45.744Z,5.80
2018-06-11T16:01:14.798Z,5.60
2018-06-11T16:03:43.850Z,6.17
2018-06-11T16:06:12.911Z,5.63
2018-06-11T16:08:41.927Z,6.60
2018-06-11T16:11:10.987Z,6.03
2018-06-11T16:13:40.032Z,5.50
2018-06-11T16:16:09.099Z,4.60
2018-06-11T16:18:38.143Z,5.10
2018-06-11T16:21:07.178Z,5.20
2018-06-11T16:23:36.208Z,5.33
2018-06-11T16:26:05.311Z,5.57
2018-06-11T16:28:36.471Z,6.10
2018-06-11T16:31:05.499Z,6.10
2018-06-11T16:33:34.549Z,5.60
2018-06-11T16:36:03.565Z,5.10
2018-06-11T16:38:32.619Z,4.83
2018-06-11T16:41:01.671Z,5.27
2018-06-11T16:43:30.727Z,5.67
2018-06-11T16:45:59.776Z,4.97
2018-06-11T16:48:28.759Z,5.50
2018-06-11T16:50:57.791Z,4.90
2018-06-11T16:53:26.803Z,4.70
2018-06-11T16:55:55.935Z,4.50
2018-06-11T16:58:24.975Z,5.30
2018-06-11T17:00:54.282Z,4.97
2018-06-11T17:03:23.297Z,6.30
2018-06-11T17:05:52.376Z,7.10
2018-06-11T17:08:21.458Z,5.70
2018-06-11T17:10:50.492Z,5.40
2018-06-11T17:13:19.490Z,6.40
2018-06-11T17:15:48.393Z,5.50
2018-06-11T17:18:17.438Z,5.90
2018-06-11T17:20:46.450Z,4.93
2018-06-11T17:23:15.487Z,5.00
2018-06-11T17:25:44.472Z,6.33
2018-06-11T17:28:13.537Z,5.80
2018-06-11T17:30:42.565Z,5.70
2018-06-11T17:33:11.608Z,5.70
2018-06-11T17:35:40.640Z,7.40
2018-06-11T17:38:09.701Z,6.13
2018-06-11T17:40:38.740Z,6.30
2018-06-11T17:43:07.809Z,6.70
2018-06-11T17:45:36.914Z,6.57
2018-06-11T17:48:06.700Z,6.80
2018-06-11T17:50:35.540Z,6.10
2018-06-11T17:53:04.588Z,7.43
2018-06-11T17:55:33.694Z,6.80
2018-06-11T17:58:02.715Z,6.60
2018-06-11T18:00:31.822Z,7.23
2018-06-11T18:03:00.839Z,6.80
2018-06-11T18:05:29.928Z,6.20
2018-06-11T18:07:58.956Z,6.40
2018-06-11T18:10:28.023Z,6.77
2018-06-11T18:12:57.215Z,6.40
2018-06-11T18:15:26.259Z,6.67
2018-06-11T18:17:55.298Z,6.57
2018-06-11T18:20:24.290Z,7.20
2018-06-11T18:22:53.370Z,6.27
2018-06-11T18:25:22.384Z,6.70
2018-06-11T18:27:51.435Z,6.63
2018-06-11T18:30:20.430Z,5.80
2018-06-11T18:32:49.623Z,6.13
2018-06-11T18:35:18.641Z,6.83
2018-06-11T18:37:47.651Z,6.87
2018-06-11T18:40:16.707Z,5.47
2018-06-11T18:42:45.702Z,6.80
2018-06-11T18:45:14.746Z,5.50
2018-06-11T18:47:43.731Z,4.90
2018-06-11T18:50:12.767Z,4.93
2018-06-11T18:52:41.786Z,5.37
2018-06-11T18:55:10.868Z,5.07
2018-06-11T18:57:39.939Z,5.97
2018-06-11T19:00:09.037Z,5.73
2018-06-11T19:02:38.075Z,5.20
2018-06-11T19:05:07.182Z,5.17
2018-06-11T19:07:36.237Z,5.40
2018-06-11T19:10:05.359Z,4.70
2018-06-11T19:12:35.690Z,4.90
2018-06-11T19:15:04.833Z,5.33
2018-06-11T19:17:34.026Z,5.27
2018-06-11T19:20:03.055Z,5.30
2018-06-11T19:22:32.076Z,4.33
2018-06-11T19:25:01.132Z,4.93
2018-06-11T19:27:30.175Z,4.53
2018-06-11T19:29:59.207Z,4.47
2018-06-11T19:32:28.239Z,5.03
2018-06-11T19:34:57.406Z,4.87
2018-06-11T19:37:26.423Z,4.67
2018-06-11T19:39:55.455Z,4.20
2018-06-11T19:42:24.465Z,4.60
2018-06-11T19:44:53.565Z,4.23
2018-06-11T19:47:22.596Z,4.30
2018-06-11T19:49:51.751Z,4.30
2018-06-11T19:52:20.733Z,4.90
2018-06-11T19:54:50.789Z,4.23
2018-06-11T19:57:19.784Z,4.00
2018-06-11T19:59:48.851Z,4.10
2018-06-11T20:02:18.415Z,4.30
2018-06-11T20:04:47.489Z,3.93
2018-06-11T20:07:16.549Z,4.20
2018-06-11T20:09:45.581Z,5.00
2018-06-11T20:12:14.709Z,3.70
2018-06-11T20:14:43.696Z,4.67
2018-06-11T20:17:12.760Z,5.30
2018-06-11T20:19:41.766Z,5.53
2018-06-11T20:22:10.892Z,5.00
2018-06-11T20:24:39.932Z,5.20
2018-06-11T20:27:09.290Z,5.10
2018-06-11T20:29:38.282Z,5.47
2018-06-11T20:32:07.348Z,5.90
2018-06-11T20:34:36.379Z,5.67
2018-06-11T20:37:05.420Z,5.27
2018-06-11T20:39:34.387Z,5.53
2018-06-11T20:42:03.459Z,5.13
2018-06-11T20:44:32.490Z,5.97
2018-06-11T20:47:01.486Z,6.47
2018-06-11T20:49:30.547Z,5.43
2018-06-11T20:51:59.125Z,5.67
2018-06-11T20:54:28.195Z,5.70
2018-06-11T20:56:57.226Z,6.50
2018-06-11T20:59:26.356Z,6.73
2018-06-11T21:01:55.494Z,6.83
2018-06-11T21:04:24.563Z,6.70
2018-06-11T21:06:53.563Z,5.90
2018-06-11T21:09:22.540Z,6.33
2018-06-11T21:11:51.622Z,5.93
2018-06-11T21:14:20.643Z,6.07
2018-06-11T21:16:49.847Z,6.93
2018-06-11T21:19:18.842Z,6.47
2018-06-11T21:21:47.890Z,5.53
2018-06-11T21:24:16.914Z,6.10
2018-06-11T21:26:45.981Z,6.30
2018-06-11T21:29:15.024Z,5.90
2018-06-11T21:31:44.075Z,6.07
2018-06-11T21:34:13.099Z,5.80
2018-06-11T21:36:42.096Z,6.60
2018-06-11T21:39:11.195Z,5.60
2018-06-11T21:41:40.196Z,5.30
2018-06-11T21:44:09.238Z,6.00
2018-06-11T21:46:38.265Z,6.37
2018-06-11T21:49:07.305Z,5.30
2018-06-11T21:51:36.319Z,5.73
2018-06-11T21:54:05.449Z,7.07
2018-06-11T21:56:34.470Z,6.90
2018-06-11T21:59:03.544Z,7.80
2018-06-11T22:01:32.652Z,5.90
2018-06-11T22:04:01.932Z,7.07
2018-06-11T22:06:30.735Z,6.47
2018-06-11T22:08:59.764Z,7.50
2018-06-11T22:11:28.881Z,7.90
2018-06-11T22:13:57.435Z,6.70
2018-06-11T22:16:26.484Z,6.40
2018-06-11T22:18:55.538Z,7.73
2018-06-11T22:21:24.578Z,5.83
2018-06-11T22:23:53.630Z,7.83
2018-06-11T22:26:22.667Z,7.23
2018-06-11T22:28:51.721Z,6.87
2018-06-11T22:31:20.735Z,6.93
2018-06-11T22:33:49.779Z,6.20
2018-06-11T22:36:18.782Z,5.73
2018-06-11T22:38:47.828Z,5.27
2018-06-11T22:41:16.849Z,4.80
2018-06-11T22:43:45.928Z,4.77
2018-06-11T22:46:14.965Z,5.80
2018-06-11T22:48:44.008Z,5.20
2018-06-11T22:51:13.037Z,6.60
2018-06-11T22:53:42.096Z,5.80
2018-06-11T22:56:11.157Z,5.17
2018-06-11T22:58:40.163Z,6.10
2018-06-11T23:01:09.276Z,6.10
2018-06-11T23:03:38.293Z,5.57
2018-06-11T23:06:07.328Z,4.60
2018-06-11T23:08:36.325Z,4.70
2018-06-11T23:11:06.264Z,3.77
2018-06-11T23:13:35.276Z,3.80
2018-06-11T23:16:04.310Z,3.50
2018-06-11T23:18:33.348Z,3.40
2018-06-11T23:21:02.370Z,3.30
2018-06-11T23:23:31.460Z,3.20
2018-06-11T23:26:00.482Z,2.70
2018-06-11T23:28:29.541Z,3.27
2018-06-11T23:30:58.562Z,2.57
2018-06-11T23:33:27.625Z,2.60
2018-06-11T23:35:56.620Z,2.73
2018-06-11T23:38:25.676Z,2.97
2018-06-11T23:40:54.697Z,2.80
2018-06-11T23:43:23.783Z,3.40
2018-06-11T23:45:52.848Z,3.10
2018-06-11T23:48:22.552Z,2.90
2018-06-11T23:50:51.740Z,3.40
2018-06-11T23:53:21.239Z,3.40
2018-06-11T23:55:50.287Z,3.33
2018-06-11T23:58:19.260Z,4.57
